createdAt,value
2022-09-01T00:00:30.720Z,17.70
2022-09-01T00:02:59.049Z,17.60
2022-09-01T00:05:27.424Z,17.60
2022-09-01T00:07:56.959Z,17.60
2022-09-01T00:10:25.498Z,17.50
2022-09-01T00:12:53.744Z,17.50
2022-09-01T00:15:21.991Z,17.50
2022-09-01T00:17:50.227Z,17.40
2022-09-01T00:20:20.630Z,17.40
2022-09-01T00:22:49.629Z,17.30
2022-09-01T00:25:20.384Z,17.30
2022-09-01T00:27:49.328Z,17.20
2022-09-01T00:30:17.679Z,17.10
2022-09-01T00:32:46.861Z,17.10
2022-09-01T00:35:16.066Z,17.00
2022-09-01T00:37:44.333Z,17.00
2022-09-01T00:40:16.132Z,16.90
2022-09-01T00:42:46.286Z,16.80
2022-09-01T00:45:14.735Z,16.80
2022-09-01T00:47:43.159Z,16.70
2022-09-01T00:50:16.017Z,16.60
2022-09-01T00:52:49.103Z,16.60
2022-09-01T00:55:22.686Z,16.50
2022-09-01T00:57:52.511Z,16.50
2022-09-01T01:00:23.420Z,16.40
2022-09-01T01:02:55.976Z,16.30
2022-09-01T01:05:27.862Z,16.30
2022-09-01T01:07:57.336Z,16.20
2022-09-01T01:10:26.715Z,16.20
2022-09-01T01:12:56.692Z,16.10
2022-09-01T01:15:25.147Z,16.00
2022-09-01T01:17:53.359Z,16.10
2022-09-01T01:20:44.235Z,16.00
2022-09-01T01:23:19.593Z,16.00
2022-09-01T01:25:52.271Z,15.90
2022-09-01T01:28:24.579Z,15.90
2022-09-01T01:30:56.442Z,15.80
2022-09-01T01:33:27.270Z,15.70
2022-09-01T01:35:57.633Z,15.70
2022-09-01T01:38:28.080Z,15.70
2022-09-01T01:40:58.743Z,15.60
2022-09-01T01:43:28.978Z,15.50
2022-09-01T01:46:02.471Z,15.50
2022-09-01T01:48:37.224Z,15.40
2022-09-01T01:51:06.537Z,15.40
2022-09-01T01:53:35.468Z,15.30
2022-09-01T01:56:06.193Z,15.30
2022-09-01T01:58:37.103Z,15.20
2022-09-01T02:01:11.887Z,15.20
2022-09-01T02:03:40.676Z,15.10
2022-09-01T02:06:11.871Z,15.10
2022-09-01T02:08:41.776Z,15.00
2022-09-01T02:11:13.190Z,15.00
2022-09-01T02:13:41.485Z,14.90
2022-09-01T02:16:13.000Z,14.90
2022-09-01T02:18:48.551Z,14.90
2022-09-01T02:21:20.320Z,14.80
2022-09-01T02:23:49.907Z,14.80
2022-09-01T02:26:22.865Z,14.80
2022-09-01T02:28:55.323Z,14.70
2022-09-01T02:31:28.982Z,14.70
2022-09-01T02:34:01.149Z,14.70
2022-09-01T02:36:32.859Z,14.60
2022-09-01T02:39:02.115Z,14.60
2022-09-01T02:41:34.444Z,14.50
2022-09-01T02:44:04.025Z,14.50
2022-09-01T02:46:32.811Z,14.50
2022-09-01T02:49:04.551Z,14.50
2022-09-01T02:51:34.519Z,14.40
2022-09-01T02:54:02.949Z,14.40
2022-09-01T02:56:33.863Z,14.40
2022-09-01T02:59:03.070Z,14.40
2022-09-01T03:01:33.980Z,14.30
2022-09-01T03:04:05.683Z,14.30
2022-09-01T03:06:36.392Z,14.30
2022-09-01T03:09:08.553Z,14.30
2022-09-01T03:11:43.591Z,14.30
2022-09-01T03:14:13.223Z,14.30
2022-09-01T03:16:41.881Z,14.20
2022-09-01T03:19:11.990Z,14.10
2022-09-01T03:21:44.376Z,14.20
2022-09-01T03:24:16.875Z,14.10
2022-09-01T03:26:50.164Z,14.20
2022-09-01T03:29:19.770Z,14.20
2022-09-01T03:31:48.413Z,14.10
2022-09-01T03:34:23.597Z,14.00
2022-09-01T03:36:54.384Z,14.00
2022-09-01T03:39:29.672Z,13.90
2022-09-01T03:41:59.651Z,13.90
2022-09-01T03:44:28.632Z,13.80
2022-09-01T03:46:58.431Z,13.80
2022-09-01T03:49:28.543Z,13.80
2022-09-01T03:51:58.719Z,13.70
2022-09-01T03:54:30.523Z,13.70
2022-09-01T03:57:00.630Z,13.70
2022-09-01T03:59:30.652Z,13.60
2022-09-01T04:02:00.383Z,13.60
2022-09-01T04:04:31.410Z,13.50
2022-09-01T04:07:00.158Z,13.50
2022-09-01T04:09:30.070Z,13.50
2022-09-01T04:11:58.728Z,13.50
2022-09-01T04:14:29.266Z,13.50
2022-09-01T04:17:30.537Z,13.40
2022-09-01T04:19:59.257Z,13.40
2022-09-01T04:22:32.025Z,13.40
2022-09-01T04:25:00.554Z,13.30
2022-09-01T04:27:29.091Z,13.30
2022-09-01T04:30:01.326Z,13.30
2022-09-01T04:32:32.490Z,13.20
2022-09-01T04:35:04.054Z,13.20
2022-09-01T04:37:32.500Z,13.20
2022-09-01T04:40:05.986Z,13.00
2022-09-01T04:42:34.880Z,13.00
2022-09-01T04:45:11.298Z,13.00
2022-09-01T04:47:45.958Z,13.00
2022-09-01T04:50:19.213Z,12.90
2022-09-01T04:53:07.048Z,12.90
2022-09-01T04:55:50.263Z,12.90
2022-09-01T04:58:22.068Z,12.90
2022-09-01T05:00:53.097Z,12.90
2022-09-01T05:03:24.394Z,12.80
2022-09-01T05:06:17.945Z,12.90
2022-09-01T05:08:53.514Z,12.90
2022-09-01T05:11:38.881Z,12.80
2022-09-01T05:14:18.985Z,12.80
2022-09-01T05:16:49.986Z,12.80
2022-09-01T05:19:20.813Z,12.90
2022-09-01T05:21:50.518Z,12.80
2022-09-01T05:24:21.707Z,12.80
2022-09-01T05:26:50.758Z,12.90
2022-09-01T05:29:21.072Z,12.90
2022-09-01T05:31:52.674Z,12.90
2022-09-01T05:34:26.386Z,12.90
2022-09-01T05:36:57.888Z,13.00
2022-09-01T05:39:26.723Z,13.00
2022-09-01T05:41:55.644Z,13.00
2022-09-01T05:44:24.412Z,13.00
2022-09-01T05:47:00.098Z,13.00
2022-09-01T05:49:33.193Z,13.00
2022-09-01T05:52:04.809Z,13.10
2022-09-01T05:54:34.823Z,13.20
2022-09-01T05:57:30.234Z,13.20
2022-09-01T05:59:54.544Z,13.30
2022-09-01T06:02:28.461Z,13.40
2022-09-01T06:04:59.893Z,13.40
2022-09-01T06:07:32.813Z,13.50
2022-09-01T06:10:02.750Z,13.60
2022-09-01T06:12:31.259Z,13.50
2022-09-01T06:15:00.139Z,13.60
2022-09-01T06:17:30.935Z,13.70
2022-09-01T06:20:10.591Z,13.80
2022-09-01T06:22:41.119Z,13.90
2022-09-01T06:25:11.498Z,14.10
2022-09-01T06:27:45.019Z,14.20
2022-09-01T06:30:23.699Z,14.40
2022-09-01T06:33:09.339Z,14.60
2022-09-01T06:35:40.514Z,14.70
2022-09-01T06:38:10.023Z,14.90
2022-09-01T06:40:47.391Z,15.10
2022-09-01T06:43:20.514Z,15.30
2022-09-01T06:45:54.932Z,15.50
2022-09-01T06:48:27.543Z,15.60
2022-09-01T06:51:20.968Z,15.80
2022-09-01T06:53:57.096Z,15.90
2022-09-01T06:56:32.311Z,16.10
2022-09-01T06:59:05.139Z,16.30
2022-09-01T07:01:35.528Z,16.50
2022-09-01T07:04:12.493Z,16.70
2022-09-01T07:07:00.373Z,16.80
2022-09-01T07:18:44.807Z,17.50
2022-09-01T07:21:39.131Z,17.70
2022-09-01T07:24:20.414Z,18.00
2022-09-01T07:27:14.404Z,18.00
2022-09-01T07:29:43.436Z,18.40
2022-09-01T07:35:07.541Z,18.70
2022-09-01T07:42:59.127Z,17.20
2022-09-01T07:43:41.951Z,19.30
2022-09-01T07:46:37.693Z,19.40
2022-09-01T07:51:59.802Z,19.50
2022-09-01T07:54:30.439Z,19.50
2022-09-01T07:56:59.442Z,19.60
2022-09-01T07:59:30.061Z,19.80
2022-09-01T08:02:06.664Z,19.90
2022-09-01T08:04:35.339Z,20.00
2022-09-01T08:07:05.704Z,20.10
2022-09-01T08:09:43.843Z,20.20
2022-09-01T08:12:13.814Z,20.40
2022-09-01T08:15:12.755Z,20.50
2022-09-01T08:17:57.324Z,20.50
2022-09-01T08:20:28.069Z,20.60
2022-09-01T08:23:00.697Z,20.80
2022-09-01T08:25:37.379Z,21.00
2022-09-01T08:28:07.726Z,21.20
2022-09-01T08:30:36.668Z,21.30
2022-09-01T08:33:12.015Z,21.30
2022-09-01T08:35:48.059Z,21.40
2022-09-01T08:38:17.395Z,21.50
2022-09-01T08:40:56.378Z,21.60
2022-09-01T08:43:38.843Z,21.60
2022-09-01T08:46:13.668Z,21.70
2022-09-01T08:51:51.221Z,22.00
2022-09-01T08:54:29.714Z,21.70
2022-09-01T08:57:06.022Z,21.80
2022-09-01T08:59:53.712Z,21.70
2022-09-01T09:02:46.473Z,22.00
2022-09-01T09:05:29.188Z,22.10
2022-09-01T09:08:17.305Z,22.30
2022-09-01T09:10:53.895Z,22.40
2022-09-01T09:13:32.756Z,22.60
2022-09-01T09:16:08.170Z,22.70
2022-09-01T09:18:54.638Z,22.70
2022-09-01T09:21:28.011Z,22.60
2022-09-01T09:24:01.731Z,22.80
2022-09-01T09:26:42.280Z,22.90
2022-09-01T09:29:12.041Z,22.90
2022-09-01T09:31:45.939Z,23.10
2022-09-01T09:34:28.763Z,23.00
2022-09-01T09:36:57.394Z,23.10
2022-09-01T09:39:25.684Z,23.20
2022-09-01T09:42:09.051Z,23.30
2022-09-01T09:44:44.755Z,23.40
2022-09-01T09:47:43.917Z,23.50
2022-09-01T09:50:20.665Z,23.40
2022-09-01T09:52:50.377Z,23.50
2022-09-01T09:55:27.402Z,23.70
2022-09-01T09:58:00.284Z,23.80
2022-09-01T10:00:34.009Z,23.80
2022-09-01T10:03:08.763Z,23.90
2022-09-01T10:05:43.051Z,23.90
2022-09-01T10:08:14.873Z,24.00
2022-09-01T10:10:45.702Z,24.10
2022-09-01T10:13:26.981Z,23.90
2022-09-01T10:15:58.819Z,23.90
2022-09-01T10:18:33.119Z,24.00
2022-09-01T10:21:04.258Z,24.00
2022-09-01T10:23:36.958Z,24.00
2022-09-01T10:26:10.604Z,24.00
2022-09-01T10:28:49.973Z,24.10
2022-09-01T10:31:22.564Z,24.20
2022-09-01T10:33:51.454Z,24.50
2022-09-01T10:36:24.466Z,24.50
2022-09-01T10:38:58.776Z,24.70
2022-09-01T10:41:53.250Z,24.70
2022-09-01T10:44:34.141Z,24.80
2022-09-01T10:47:06.441Z,24.70
2022-09-01T10:50:10.107Z,24.60
2022-09-01T10:52:56.709Z,24.50
2022-09-01T10:55:28.520Z,24.60
2022-09-01T10:59:30.838Z,24.50
2022-09-01T11:01:40.496Z,24.70
2022-09-01T11:03:58.821Z,24.70
2022-09-01T11:07:17.217Z,24.60
2022-09-01T11:10:33.851Z,24.70
2022-09-01T11:13:19.107Z,24.90
2022-09-01T11:15:48.628Z,25.00
2022-09-01T11:18:24.863Z,25.10
2022-09-01T11:20:55.438Z,25.20
2022-09-01T11:23:27.642Z,25.30
2022-09-01T11:28:46.052Z,25.40
2022-09-01T11:31:33.235Z,25.60
2022-09-01T11:34:19.012Z,25.80
2022-09-01T11:36:54.367Z,25.90
2022-09-01T11:39:36.902Z,25.80
2022-09-01T11:42:13.229Z,25.50
2022-09-01T11:44:48.985Z,25.20
2022-09-01T11:47:21.017Z,25.20
2022-09-01T11:49:53.657Z,25.50
2022-09-01T11:52:25.879Z,25.80
2022-09-01T11:54:54.995Z,25.70
2022-09-01T11:57:32.171Z,25.90
2022-09-01T12:00:02.370Z,25.90
2022-09-01T12:02:46.495Z,26.00
2022-09-01T12:05:31.379Z,25.90
2022-09-01T12:08:03.276Z,26.10
2022-09-01T12:10:35.032Z,26.20
2022-09-01T12:13:07.144Z,26.20
2022-09-01T12:15:40.993Z,26.10
2022-09-01T12:18:19.463Z,25.80
2022-09-01T12:23:28.678Z,25.80
2022-09-01T12:25:59.562Z,25.90
2022-09-01T12:28:31.082Z,26.20
2022-09-01T12:31:04.144Z,26.30
2022-09-01T12:33:36.759Z,26.30
2022-09-01T12:36:23.824Z,26.60
2022-09-01T12:38:54.662Z,26.60
2022-09-01T12:41:32.616Z,26.70
2022-09-01T12:44:29.981Z,26.70
2022-09-01T12:47:00.783Z,26.90
2022-09-01T12:49:38.136Z,26.80
2022-09-01T12:52:25.382Z,26.90
2022-09-01T12:58:07.088Z,26.80
2022-09-01T13:00:39.565Z,26.50
2022-09-01T13:03:15.139Z,26.30
2022-09-01T13:05:47.072Z,26.40
2022-09-01T13:08:18.310Z,26.50
2022-09-01T13:10:51.557Z,26.50
2022-09-01T13:13:20.675Z,26.50
2022-09-01T13:15:51.740Z,26.70
2022-09-01T13:18:21.560Z,26.90
2022-09-01T13:20:51.289Z,27.00
2022-09-01T13:23:20.593Z,27.10
2022-09-01T13:25:50.524Z,27.10
2022-09-01T13:28:20.501Z,26.90
2022-09-01T13:36:44.436Z,27.10
2022-09-01T13:39:15.678Z,26.80
2022-09-01T13:41:47.191Z,26.70
2022-09-01T13:44:17.013Z,26.80
2022-09-01T13:47:28.756Z,26.90
2022-09-01T13:49:44.097Z,26.80
2022-09-01T13:52:22.753Z,26.70
2022-09-01T13:54:51.335Z,26.50
2022-09-01T13:57:21.226Z,26.60
2022-09-01T13:59:49.426Z,26.50
2022-09-01T14:02:18.067Z,26.30
2022-09-01T14:04:47.548Z,26.40
2022-09-01T14:07:16.213Z,26.50
2022-09-01T14:09:44.511Z,26.50
2022-09-01T14:12:13.543Z,26.50
2022-09-01T14:17:31.460Z,26.50
2022-09-01T14:19:59.654Z,26.50
2022-09-01T14:22:28.033Z,26.60
2022-09-01T14:24:56.324Z,26.80
2022-09-01T14:27:24.564Z,27.00
2022-09-01T14:29:54.823Z,27.10
2022-09-01T14:32:27.118Z,26.90
2022-09-01T14:34:56.438Z,26.70
2022-09-01T14:37:25.754Z,26.90
2022-09-01T14:39:54.956Z,27.00
2022-09-01T14:42:25.714Z,27.10
2022-09-01T14:44:55.657Z,27.10
2022-09-01T14:47:25.697Z,27.10
2022-09-01T14:49:54.460Z,27.10
2022-09-01T14:52:22.900Z,27.20
2022-09-01T14:54:51.259Z,27.20
2022-09-01T14:57:36.584Z,27.20
2022-09-01T15:00:11.983Z,27.00
2022-09-01T15:02:42.432Z,27.10
2022-09-01T15:05:12.496Z,27.10
2022-09-01T15:07:41.366Z,27.10
2022-09-01T15:10:15.778Z,27.30
2022-09-01T15:12:52.892Z,27.40
2022-09-01T15:15:23.553Z,27.40
2022-09-01T15:17:51.747Z,27.30
2022-09-01T15:20:37.612Z,27.20
2022-09-01T15:23:07.836Z,27.30
2022-09-01T15:25:36.133Z,27.30
2022-09-01T15:28:06.060Z,27.00
2022-09-01T15:30:36.959Z,26.90
2022-09-01T15:33:07.468Z,26.90
2022-09-01T15:35:37.556Z,26.80
2022-09-01T15:38:07.041Z,26.90
2022-09-01T15:40:35.689Z,26.90
2022-09-01T15:43:06.410Z,26.90
2022-09-01T15:45:36.152Z,27.00
2022-09-01T15:48:04.700Z,26.80
2022-09-01T15:50:33.182Z,26.70
2022-09-01T15:53:03.663Z,26.50
2022-09-01T15:55:42.057Z,26.50
2022-09-01T15:58:11.338Z,26.50
2022-09-01T16:00:42.305Z,26.70
2022-09-01T16:03:11.197Z,26.80
2022-09-01T16:05:41.452Z,26.70
2022-09-01T16:08:11.773Z,26.70
2022-09-01T16:10:42.243Z,26.80
2022-09-01T16:13:12.996Z,26.60
2022-09-01T16:15:50.218Z,26.40
2022-09-01T16:18:32.737Z,26.40
2022-09-01T16:21:06.573Z,26.50
2022-09-01T16:23:41.464Z,26.20
2022-09-01T16:26:11.781Z,26.20
2022-09-01T16:28:43.084Z,26.10
2022-09-01T16:31:15.486Z,26.20
2022-09-01T16:33:49.204Z,26.00
2022-09-01T16:36:35.358Z,26.00
2022-09-01T16:39:14.187Z,26.00
2022-09-01T16:41:55.498Z,25.90
2022-09-01T16:44:35.516Z,25.90
2022-09-01T16:47:20.609Z,25.90
2022-09-01T16:50:03.899Z,26.00
2022-09-01T16:52:42.655Z,26.00
2022-09-01T16:55:23.639Z,25.90
2022-09-01T16:58:01.402Z,26.00
2022-09-01T17:00:39.002Z,25.90
2022-09-01T17:03:17.883Z,25.80
2022-09-01T17:05:56.054Z,25.50
2022-09-01T17:08:25.992Z,25.60
2022-09-01T17:10:59.055Z,25.50
2022-09-01T17:13:38.598Z,25.40
2022-09-01T17:16:12.651Z,25.30
2022-09-01T17:18:48.216Z,25.30
2022-09-01T17:21:21.853Z,25.40
2022-09-01T17:23:56.484Z,25.30
2022-09-01T17:26:27.523Z,25.30
2022-09-01T17:28:58.717Z,25.30
2022-09-01T17:31:43.393Z,25.20
2022-09-01T17:34:31.047Z,25.00
2022-09-01T17:37:08.692Z,24.90
2022-09-01T17:39:50.270Z,24.90
2022-09-01T17:42:28.317Z,24.80
2022-09-01T17:45:02.115Z,24.60
2022-09-01T17:47:37.367Z,24.50
2022-09-01T17:50:16.346Z,24.60
2022-09-01T17:52:53.624Z,24.50
2022-09-01T17:55:36.890Z,24.50
2022-09-01T17:58:13.235Z,24.40
2022-09-01T18:00:50.824Z,24.30
2022-09-01T18:03:45.414Z,24.20
2022-09-01T18:06:23.894Z,24.20
2022-09-01T18:08:56.954Z,24.00
2022-09-01T18:11:34.888Z,23.90
2022-09-01T18:14:08.289Z,23.80
2022-09-01T18:16:44.336Z,23.70
2022-09-01T18:19:17.862Z,23.50
2022-09-01T18:21:53.256Z,23.40
2022-09-01T18:24:27.363Z,23.30
2022-09-01T18:26:55.646Z,23.20
2022-09-01T18:29:29.602Z,23.00
2022-09-01T18:32:12.271Z,22.80
2022-09-01T18:35:02.211Z,22.70
2022-09-01T18:37:39.536Z,22.70
2022-09-01T18:40:17.657Z,22.60
2022-09-01T18:42:53.865Z,22.30
2022-09-01T18:45:32.600Z,22.30
2022-09-01T18:48:09.708Z,22.30
2022-09-01T18:50:45.617Z,22.20
2022-09-01T18:53:25.963Z,22.20
2022-09-01T18:56:01.754Z,22.10
2022-09-01T18:58:50.645Z,22.00
2022-09-01T19:01:29.575Z,22.00
2022-09-01T19:04:09.921Z,22.00
2022-09-01T19:06:47.626Z,22.00
2022-09-01T19:09:28.096Z,21.90
2022-09-01T19:12:10.554Z,21.80
2022-09-01T19:14:48.911Z,21.70
2022-09-01T19:17:46.904Z,21.70
2022-09-01T19:20:19.262Z,21.60
2022-09-01T19:22:54.595Z,21.70
2022-09-01T19:25:40.650Z,21.70
2022-09-01T19:28:17.912Z,21.70
2022-09-01T19:30:50.631Z,21.60
2022-09-01T19:33:25.156Z,21.60
2022-09-01T19:35:57.503Z,21.50
2022-09-01T19:38:28.992Z,21.50
2022-09-01T19:41:05.260Z,21.40
2022-09-01T19:43:38.642Z,21.30
2022-09-01T19:46:18.616Z,21.20
2022-09-01T19:48:51.040Z,21.20
2022-09-01T19:51:23.852Z,21.10
2022-09-01T19:53:56.815Z,21.00
2022-09-01T19:56:33.658Z,20.90
2022-09-01T19:59:12.956Z,20.90
2022-09-01T20:01:46.429Z,20.80
2022-09-01T20:04:29.821Z,20.70
2022-09-01T20:07:01.393Z,20.60
2022-09-01T20:09:38.174Z,20.50
2022-09-01T20:12:18.598Z,20.50
2022-09-01T20:15:01.216Z,20.40
2022-09-01T20:17:33.452Z,20.30
2022-09-01T20:20:08.660Z,20.30
2022-09-01T20:22:44.927Z,20.20
2022-09-01T20:25:17.885Z,20.10
2022-09-01T20:27:52.163Z,20.00
2022-09-01T20:30:22.760Z,20.00
2022-09-01T20:32:57.079Z,19.90
2022-09-01T20:35:35.170Z,19.80
2022-09-01T20:38:32.460Z,19.80
2022-09-01T20:41:03.837Z,19.80
2022-09-01T20:43:39.753Z,19.70
2022-09-01T20:46:08.654Z,19.70
2022-09-01T20:48:40.599Z,19.70
2022-09-01T20:51:13.553Z,19.60
2022-09-01T20:53:55.199Z,19.60
2022-09-01T20:56:30.055Z,19.50
2022-09-01T20:59:04.451Z,19.40
2022-09-01T21:01:37.357Z,19.30
2022-09-01T21:04:11.154Z,19.30
2022-09-01T21:06:49.935Z,19.20
2022-09-01T21:09:29.981Z,19.10
2022-09-01T21:12:07.302Z,19.00
2022-09-01T21:14:48.908Z,19.00
2022-09-01T21:17:23.979Z,18.90
2022-09-01T21:20:03.807Z,18.80
2022-09-01T21:22:32.095Z,18.80
2022-09-01T21:25:01.080Z,18.70
2022-09-01T21:27:36.938Z,18.60
2022-09-01T21:30:10.352Z,18.60
2022-09-01T21:32:39.700Z,18.50
2022-09-01T21:35:10.127Z,18.40
2022-09-01T21:37:38.338Z,18.40
2022-09-01T21:40:08.197Z,18.40
2022-09-01T21:42:41.059Z,18.40
2022-09-01T21:45:13.836Z,18.30
2022-09-01T21:47:43.762Z,18.30
2022-09-01T21:50:14.047Z,18.20
2022-09-01T21:52:42.701Z,18.20
2022-09-01T21:55:11.146Z,18.10
2022-09-01T21:57:39.652Z,18.00
2022-09-01T22:00:11.914Z,17.90
2022-09-01T22:02:43.110Z,17.90
2022-09-01T22:05:11.894Z,17.80
2022-09-01T22:07:42.307Z,17.70
2022-09-01T22:10:13.657Z,17.50
2022-09-01T22:12:44.584Z,17.50
2022-09-01T22:15:16.888Z,17.60
2022-09-01T22:17:46.856Z,17.60
2022-09-01T22:20:19.483Z,17.50
2022-09-01T22:22:48.066Z,17.50
2022-09-01T22:25:18.751Z,17.50
2022-09-01T22:27:47.197Z,17.40
2022-09-01T22:30:18.578Z,17.30
2022-09-01T22:32:47.914Z,17.30
2022-09-01T22:35:18.224Z,17.30
2022-09-01T22:37:47.004Z,17.20
2022-09-01T22:40:16.516Z,17.10
2022-09-01T22:42:45.111Z,17.20
2022-09-01T22:45:15.433Z,17.10
2022-09-01T22:47:45.035Z,17.00
2022-09-01T22:50:13.490Z,17.00
2022-09-01T22:52:42.012Z,17.00
2022-09-01T22:55:11.182Z,16.90
2022-09-01T22:57:39.423Z,16.80
2022-09-01T23:00:10.842Z,16.80
2022-09-01T23:02:40.065Z,16.70
2022-09-01T23:05:10.017Z,16.60
2022-09-01T23:07:39.624Z,16.60
2022-09-01T23:10:09.747Z,16.50
2022-09-01T23:12:37.993Z,16.50
2022-09-01T23:15:07.391Z,16.40
2022-09-01T23:17:36.704Z,16.40
2022-09-01T23:20:07.174Z,16.40
2022-09-01T23:22:36.751Z,16.40
2022-09-01T23:25:05.356Z,16.30
2022-09-01T23:27:33.618Z,16.20
2022-09-01T23:30:01.873Z,16.20
2022-09-01T23:32:30.147Z,16.20
2022-09-01T23:34:59.060Z,16.20
2022-09-01T23:37:27.699Z,16.20
2022-09-01T23:39:57.448Z,16.10
2022-09-01T23:42:25.759Z,16.10
2022-09-01T23:44:54.009Z,16.00
2022-09-01T23:47:22.179Z,15.90
2022-09-01T23:49:50.402Z,15.90
2022-09-01T23:52:18.690Z,15.80
2022-09-01T23:54:46.871Z,15.80
2022-09-01T23:57:16.441Z,15.70
2022-09-01T23:59:44.704Z,15.80
